Have a Safe July 4th! 

Flight Track Log - Related Links

Times and Time Zones

All times are in EDT time to prevent confusion due to time zone crossing. See the RPA3496 flight status page for this flight to view local times or setup timezone preferences in your user account.

Time Position Orientation Groundspeed Altitude Reporting Facility
EDT Latitude Longitude Course Direction KTS MPH feet Rate Location/Type
Thu 05:34:23 PM 40.7500 -73.8333 270° West 146 168 2,300  Level New York TRACON
Thu 05:35:23 PM 40.7000 -73.8333 180° South 214 246 4,800 2,950 Climbing New York TRACON
Thu 05:36:00 PM 40.7712 -74.1974 269° West  Level Estimated
Thu 05:36:23 PM 40.6833 -73.9167 255° West 246 283 8,200  Level New York TRACON
Thu 05:37:00 PM 40.7689 -74.3056 268° West  Level Estimated
Thu 05:37:23 PM 40.7333 -74.0000 308° West 312 359 10,500  Level New York TRACON
Thu 05:38:00 PM 40.7828 -74.4123 280° West  Level FlightAware Approximate
Thu 05:38:23 PM 40.8167 -74.0667 329° Northwest 338 389 12,500  Level New York TRACON
Thu 05:39:00 PM 40.7834 -74.4333 270° West  Level FlightAware Approximate
Thu 05:39:23 PM 40.8500 -74.1500 298° West 326 375 15,000  Level New York TRACON
Thu 05:40:23 PM 40.8167 -74.2500 246° West 302 348 15,000 500 Level New York TRACON
Thu 05:41:23 PM 40.7833 -74.3500 246° West 325 374 16,000 952 Climbing New York TRACON
Thu 05:42:29 PM 40.8500 -74.4500 311° West 334 384 17,000 500 Climbing New York TRACON
Thu 05:43:23 PM 40.9167 -74.5333 317° Northwest 336 387 17,000  Level New York TRACON
Thu 05:44:23 PM 40.9167 -74.6500 270° West 329 379 17,000  Level New York TRACON
Thu 05:45:42 PM 40.8822 -74.8111 254° West 359 413 17,000 686 Level New York Center
Thu 05:46:43 PM 40.8531 -74.9272 252° West 364 419 18,600 1,750 Climbing New York Center
Thu 05:47:42 PM 40.8214 -75.0542 252° West 364 419 20,500 1,785 Climbing New York Center
Thu 05:48:44 PM 40.7936 -75.1894 255° West 370 426 22,200 1,854 Climbing New York Center
Thu 05:49:45 PM 40.7708 -75.3469 259° West 397 457 24,300 1,450 Climbing New York Center
Thu 05:50:44 PM 40.7369 -75.4708 250° West 402 463 25,100 1,109 Climbing New York Center
Thu 05:51:44 PM 40.6833 -75.6067 243° Southwest 402 463 26,500 1,271 Climbing New York Center
Thu 05:52:42 PM 40.6364 -75.7372 245° Southwest 408 470 27,600 763 Climbing New York Center
Thu 05:53:42 PM 40.5847 -75.8731 243° Southwest 414 476 28,000 197 Climbing New York Center
Thu 05:54:44 PM 40.5217 -76.0239 241° Southwest 420 483 28,000  Level New York Center
Thu 05:55:43 PM 40.4814 -76.1356 245° Southwest 425 489 28,000  Level New York Center
Thu 05:56:42 PM 40.4269 -76.2786 243° Southwest 420 483 28,000  Level New York Center
Thu 05:57:43 PM 40.3747 -76.4106 243° Southwest 420 483 28,000  Level New York Center
Thu 05:58:44 PM 40.3247 -76.5400 243° Southwest 415 478 28,000  Level New York Center
Thu 05:59:42 PM 40.2728 -76.6636 241° Southwest 405 466 28,000  Level New York Center
Thu 06:00:42 PM 40.2122 -76.7889 238° Southwest 400 460 28,000  Level New York Center
Thu 06:01:45 PM 40.1306 -76.8794 220° Southwest 395 455 28,000  Level New York Center
Thu 06:02:43 PM 40.0600 -76.9900 230° Southwest 395 455 28,000 -50 Level New York Center
Thu 06:03:44 PM 40.0458 -77.1408 263° West 391 450 27,900 -303 Descending New York Center
Thu 06:04:42 PM 40.0336 -77.2886 264° West 405 466 27,400 -900 Descending New York Center
Thu 06:05:44 PM 40.0189 -77.4367 263° West 412 474 26,100 -1,612 Descending New York Center
Thu 06:06:56 PM 39.9931 -77.6314 260° West 411 473 23,800 -1,791 Descending Cleveland Center
Thu 06:07:58 PM 39.9567 -77.7683 251° West 403 464 22,100 -871 Descending Cleveland Center
Thu 06:09:00 PM 39.9611 -77.9144 272° West 406 467 22,000 -48 Descending Cleveland Center
Thu 06:10:02 PM 39.9814 -78.0592 280° West 409 471 22,000  Level Cleveland Center
Thu 06:11:04 PM 40.0017 -78.2061 280° West 409 471 22,000  Level Cleveland Center
Thu 06:12:06 PM 40.0211 -78.3503 280° West 407 468 22,000  Level Cleveland Center
Thu 06:13:08 PM 40.0439 -78.5208 280° West 403 464 22,000  Level Cleveland Center
Thu 06:14:11 PM 40.0625 -78.6644 280° West 403 464 22,000 -387 Level Cleveland Center
Thu 06:15:12 PM 40.0822 -78.8092 280° West 403 464 21,200 -1,258 Descending Cleveland Center
Thu 06:16:15 PM 40.1000 -78.9475 280° West 395 455 19,400 -1,776 Descending Cleveland Center
Thu 06:17:17 PM 40.1200 -79.1031 280° West 381 438 17,500 -1,742 Descending Cleveland Center
Thu 06:18:19 PM 40.1372 -79.2350 280° West 358 412 15,800 -1,548 Descending Cleveland Center
Thu 06:19:21 PM 40.1517 -79.3556 279° West 355 409 14,300 -1,452 Descending Cleveland Center
Thu 06:20:23 PM 40.1669 -79.4800 279° West 350 403 12,800 -1,597 Descending Cleveland Center
Thu 06:21:25 PM 40.2103 -79.5917 297° West 349 402 11,000 -1,355 Descending Cleveland Center
Thu 06:22:27 PM 40.2692 -79.6836 310° West 333 383 10,000 -1,597 Descending Cleveland Center
Thu 06:23:29 PM 40.3306 -79.7806 310° West 296 341 7,700 -1,935 Descending Cleveland Center
Thu 06:24:31 PM 40.3817 -79.8631 309° West 295 339 6,000 -1,248 Descending Cleveland Center
Thu 06:25:34 PM 40.4319 -79.9411 310° West 287 330 5,100 -912 Descending Cleveland Center
Thu 06:26:36 PM 40.4767 -80.0150 309° West 269 310 4,100 -1,113 Descending Cleveland Center
Thu 06:27:38 PM 40.4825 -80.0958 275° West 191 220 2,800 -968 Descending Cleveland Center
Thu 06:28:40 PM 40.4836 -80.1428 272° West 137 158 2,100 -629 Descending Cleveland Center
Thu 06:29:42 PM 40.4844 -80.1900 271° West 132 152 1,500 -581 Descending Cleveland Center
Thu 06:31:00 PM 40.4833 -80.2167 276° West  Level FlightAware Approximate
Thu 06:38:00 PM 40.4914 -80.2327 304° West  Level Estimated

Login

Don't have an account? Register now (free) for customized features, flight alerts, and more!